Quinhagak, Alaska
Current Conditions -  °F | °C
As of 1:56 PM on Saturday 20 Dec 2014 (Local Time) from PAQH Reporting Station
Clear Clear  
Wind Chill: -5°   Ceiling: Unl
Heat Index: 11°   Visibility: 10mi
Dew Point:   Wind: 14mph
Humidity: 84%   Direction: 350°N
Pressure: 29.03"   Gusts: NA
Location:  59.75°N, 161.92°W
Report Text: PAQH 202256Z AUTO 35012KT 10SM CLR M12/M14 A2903 RMK AO2 SLP831 T11171139 FZRANO
Loading
Personal Weather Stations






























Interactive Weather Map New forecast layout! Learn more

10-Day Weather Forecast

Advertisements
Track Severe Weather on mobile